Time;durP1;ratioP1;P1;durP2;ratioP2;P2;SDS_P1;SDS_P2;PMS_P1;PMS_P2;Temp;Humidity;BMP_temperature;BMP_pressure;BME280_temperature;BME280_humidity;BME280_pressure;Samples;Min_cycle;Max_cycle;Signal;HPM_P1;HPM_P2
2023/05/18 00:04:28;;;;;;;28.70;18.50;;;;;;;8.24;89.59;99393.79;225492;1280;25466;-70
2023/05/18 00:09:40;;;;;;;29.30;17.00;;;;;;;8.24;89.81;99394.55;225574;1282;22534;-71
2023/05/18 00:14:42;;;;;;;28.00;16.60;;;;;;;8.23;89.62;99402.67;225593;1281;22542;-70
2023/05/18 00:19:49;;;;;;;26.20;14.80;;;;;;;8.24;89.56;99410.34;225488;1282;25376;-70
2023/05/18 00:24:51;;;;;;;22.30;14.10;;;;;;;8.23;89.16;99404.25;225433;1282;26073;-70
2023/05/18 00:29:56;;;;;;;23.60;12.60;;;;;;;8.23;89.19;99407.47;225508;1281;22543;-70
2023/05/18 00:34:58;;;;;;;26.10;13.70;;;;;;;8.22;88.96;99409.30;225507;1281;22570;-71
2023/05/18 00:40:01;;;;;;;22.60;13.00;;;;;;;8.21;89.16;99409.60;225517;1282;22580;-72
2023/05/18 00:45:06;;;;;;;26.50;13.00;;;;;;;8.20;89.13;99407.39;225535;1281;22601;-71
2023/05/18 00:50:18;;;;;;;20.60;12.40;;;;;;;8.19;88.81;99410.10;225506;1281;24319;-71
2023/05/18 00:55:21;;;;;;;20.50;11.10;;;;;;;8.18;88.66;99408.82;225584;1276;22550;-71
2023/05/18 01:00:23;;;;;;;26.10;12.90;;;;;;;8.17;88.54;99413.55;225536;1281;22570;-71
2023/05/18 01:05:27;;;;;;;22.50;12.40;;;;;;;8.16;88.25;99415.77;225482;1281;22536;-71
2023/05/18 01:10:46;;;;;;;;;;;;;;;;;;;;;
2023/05/18 01:15:56;;;;;;;19.10;11.00;;;;;;;8.14;88.17;99421.13;225558;1277;22541;-72
2023/05/18 01:21:18;;;;;;;27.40;12.20;;;;;;;8.13;88.19;99424.28;225417;1281;22602;-71
2023/05/18 01:26:28;;;;;;;19.40;11.30;;;;;;;8.11;88.27;99423.20;225626;1281;22526;-71
2023/05/18 01:31:34;;;;;;;18.80;10.70;;;;;;;8.11;88.20;99423.08;225583;1278;22534;-71
2023/05/18 01:36:37;;;;;;;20.40;9.50;;;;;;;8.09;87.99;99428.52;225539;1281;23015;-71
2023/05/18 01:42:06;;;;;;;16.30;9.90;;;;;;;8.08;88.43;99438.98;225554;1282;24226;-70
2023/05/18 01:47:13;;;;;;;21.40;10.50;;;;;;;8.07;87.74;99445.38;225519;1279;22528;-71
2023/05/18 01:52:20;;;;;;;16.00;10.00;;;;;;;8.06;87.92;99450.90;225562;1282;24233;-71
2023/05/18 01:57:26;;;;;;;20.30;11.30;;;;;;;8.05;87.81;99461.69;225580;1279;22595;-71
2023/05/18 02:02:28;;;;;;;24.70;10.80;;;;;;;8.05;87.85;99465.41;225462;1279;22540;-71
2023/05/18 02:07:31;;;;;;;23.90;10.90;;;;;;;8.05;88.15;99463.16;225434;1281;22561;-71
2023/05/18 02:12:33;;;;;;;23.00;10.80;;;;;;;8.04;87.67;99466.91;225497;1281;24205;-71
2023/05/18 02:17:39;;;;;;;22.70;11.30;;;;;;;8.03;87.76;99467.71;225625;1272;24551;-71
2023/05/18 02:22:41;;;;;;;20.80;9.50;;;;;;;8.02;87.94;99469.58;225551;1281;22584;-72
2023/05/18 02:27:44;;;;;;;19.20;9.80;;;;;;;8.00;87.86;99470.64;225553;1278;25139;-72
2023/05/18 02:32:48;;;;;;;20.30;9.50;;;;;;;7.99;87.87;99473.11;225426;1281;22546;-73
2023/05/18 02:37:52;;;;;;;17.00;9.40;;;;;;;7.96;87.44;99476.89;225476;1281;22548;-71
2023/05/18 02:42:55;;;;;;;17.00;8.80;;;;;;;7.93;87.64;99476.97;225546;1282;22569;-71
2023/05/18 02:48:02;;;;;;;19.20;8.20;;;;;;;7.90;87.56;99477.08;225449;1281;23293;-71
2023/05/18 02:53:07;;;;;;;16.30;8.30;;;;;;;7.89;87.62;99483.77;225480;1281;22536;-72
2023/05/18 02:58:13;;;;;;;22.40;8.60;;;;;;;7.88;87.51;99485.63;225430;1281;22540;-72
2023/05/18 03:03:35;;;;;;;18.90;8.40;;;;;;;7.86;87.70;99489.14;225428;1282;25338;-72
2023/05/18 03:08:39;;;;;;;15.80;8.00;;;;;;;7.84;87.33;99493.69;225502;1281;22550;-71
2023/05/18 03:13:43;;;;;;;17.50;8.70;;;;;;;7.83;87.73;99497.52;225524;1282;22591;-70
2023/05/18 03:18:47;;;;;;;17.70;8.00;;;;;;;7.81;87.54;99498.56;225481;1281;22534;-72
2023/05/18 03:23:50;;;;;;;16.80;8.00;;;;;;;7.80;87.43;99496.54;225406;1282;25781;-72
2023/05/18 03:28:57;;;;;;;15.90;7.20;;;;;;;7.78;87.32;99504.41;225455;1282;23009;-73
2023/05/18 03:34:01;;;;;;;22.60;8.20;;;;;;;7.77;87.31;99513.32;225439;1282;25411;-72
2023/05/18 03:39:05;;;;;;;16.80;7.10;;;;;;;7.77;87.37;99517.03;225499;1279;22539;-71
2023/05/18 03:44:08;;;;;;;14.90;8.70;;;;;;;7.75;87.05;99525.06;225438;1281;24221;-71
2023/05/18 03:49:11;;;;;;;12.90;7.30;;;;;;;7.75;87.30;99526.52;225485;1282;24226;-71
2023/05/18 03:54:16;;;;;;;14.90;7.70;;;;;;;7.73;87.01;99532.97;225560;1281;23125;-71
2023/05/18 03:59:24;;;;;;;15.30;6.70;;;;;;;7.72;87.35;99538.02;225542;1282;22576;-72
2023/05/18 04:04:27;;;;;;;18.90;8.00;;;;;;;7.71;87.26;99542.14;225506;1280;25361;-71
2023/05/18 04:09:48;;;;;;;17.00;7.30;;;;;;;7.72;87.27;99550.23;225603;1282;22564;-73
2023/05/18 04:14:53;;;;;;;19.20;7.40;;;;;;;7.76;87.43;99547.83;225598;1279;22586;-72
2023/05/18 04:19:55;;;;;;;16.70;6.90;;;;;;;7.79;87.21;99554.34;225497;1281;22595;-71
2023/05/18 04:24:57;;;;;;;17.30;7.50;;;;;;;7.83;87.17;99551.29;225502;1281;22539;-71
2023/05/18 04:30:04;;;;;;;15.90;6.80;;;;;;;7.88;87.28;99552.95;225566;1282;22566;-70
2023/05/18 04:35:09;;;;;;;16.10;5.50;;;;;;;7.93;86.98;99556.86;225451;1282;22537;-72
2023/05/18 04:40:16;;;;;;;18.80;6.70;;;;;;;7.98;86.65;99558.81;225574;1282;22665;-72
2023/05/18 04:45:24;;;;;;;15.80;6.60;;;;;;;8.02;86.81;99555.84;225430;1282;22558;-71
2023/05/18 04:50:40;;;;;;;18.20;6.30;;;;;;;8.10;86.69;99558.94;225541;1281;22653;-72
2023/05/18 04:55:45;;;;;;;13.80;6.40;;;;;;;8.16;86.41;99568.02;225452;1282;24198;-71
2023/05/18 05:00:53;;;;;;;18.00;9.60;;;;;;;8.21;86.22;99567.89;225545;1282;22554;-73
2023/05/18 05:06:03;;;;;;;15.10;7.00;;;;;;;8.25;86.11;99566.39;225606;1279;22615;-72
2023/05/18 05:11:09;;;;;;;13.30;6.30;;;;;;;8.32;85.95;99565.75;225541;1282;22540;-72
2023/05/18 05:16:14;;;;;;;19.20;8.70;;;;;;;8.41;85.83;99569.77;225531;1280;26051;-72
2023/05/18 05:21:17;;;;;;;15.10;7.20;;;;;;;8.52;85.88;99572.84;225585;1278;23562;-72
2023/05/18 05:26:22;;;;;;;16.30;6.60;;;;;;;8.62;85.63;99574.25;225642;1279;22543;-71
2023/05/18 05:31:25;;;;;;;12.70;6.50;;;;;;;8.69;85.12;99573.38;225474;1282;22545;-72
2023/05/18 05:36:38;;;;;;;13.50;5.70;;;;;;;8.73;84.98;99575.98;225535;1280;25271;-72
2023/05/18 05:41:40;;;;;;;13.40;6.00;;;;;;;8.76;85.03;99577.55;225490;1282;22570;-71
2023/05/18 05:46:43;;;;;;;12.90;6.20;;;;;;;8.80;84.83;99576.63;225400;1272;25391;-73
2023/05/18 05:51:47;;;;;;;17.50;7.30;;;;;;;8.91;85.18;99580.83;225063;1267;24212;-73
2023/05/18 05:56:54;;;;;;;13.10;6.00;;;;;;;9.01;84.51;99582.69;225308;1260;22719;-75
2023/05/18 06:02:00;;;;;;;18.30;7.40;;;;;;;9.11;84.80;99576.76;224861;1267;22555;-71
2023/05/18 06:07:05;;;;;;;18.20;7.20;;;;;;;9.25;84.49;99584.23;224726;1275;139439;-71
2023/05/18 06:12:08;;;;;;;12.50;5.80;;;;;;;9.40;84.30;99585.27;225044;1275;22557;-74
2023/05/18 06:17:12;;;;;;;14.90;6.00;;;;;;;9.54;83.44;99587.84;224790;1276;138343;-72
2023/05/18 06:22:17;;;;;;;16.30;4.80;;;;;;;9.66;83.19;99588.20;224989;1273;138605;-75
2023/05/18 06:27:38;;;;;;;13.20;4.90;;;;;;;9.85;82.78;99595.78;224955;1263;138528;-73
2023/05/18 06:33:07;;;;;;;10.70;4.90;;;;;;;10.06;82.04;99602.04;224824;1267;138499;-73
2023/05/18 06:38:13;;;;;;;10.80;4.70;;;;;;;10.27;81.60;99602.18;224945;1270;138690;-74
2023/05/18 06:43:21;;;;;;;10.70;5.30;;;;;;;10.49;81.24;99597.00;224948;1280;138712;-77
2023/05/18 06:48:58;;;;;;;13.40;5.20;;;;;;;10.75;80.89;99605.61;225086;1268;138659;-75
2023/05/18 06:54:04;;;;;;;11.70;4.50;;;;;;;10.96;80.09;99610.12;225236;1276;22554;-75
2023/05/18 06:59:12;;;;;;;8.80;3.90;;;;;;;11.12;79.44;99609.20;225179;1277;138756;-74
2023/05/18 07:04:24;;;;;;;9.10;3.70;;;;;;;11.19;78.66;99613.51;224910;1275;138364;-75
2023/05/18 07:09:42;;;;;;;10.10;4.00;;;;;;;11.28;78.22;99611.29;224987;1275;138494;-76
2023/05/18 07:14:44;;;;;;;11.80;4.80;;;;;;;11.37;77.53;99611.35;225001;1276;138846;-74
2023/05/18 07:19:49;;;;;;;10.30;5.20;;;;;;;11.47;77.63;99618.45;224935;1276;138658;-77
2023/05/18 07:25:07;;;;;;;10.90;4.40;;;;;;;11.68;77.52;99618.92;224958;1276;138623;-78
2023/05/18 07:30:17;;;;;;;11.90;3.70;;;;;;;11.82;76.70;99624.80;225086;1277;22539;-76
2023/05/18 07:35:23;;;;;;;10.90;3.60;;;;;;;11.97;76.74;99624.92;225232;1274;139006;-77
2023/05/18 07:40:26;;;;;;;10.70;4.60;;;;;;;12.14;76.88;99628.28;224911;1275;138944;-77
2023/05/18 07:45:33;;;;;;;10.00;4.30;;;;;;;12.43;76.96;99633.45;225046;1263;138685;-77
2023/05/18 07:50:45;;;;;;;9.20;3.50;;;;;;;12.61;76.00;99639.18;225140;1276;139039;-78
2023/05/18 07:56:06;;;;;;;;;;;;;;;;;;;;;
2023/05/18 08:01:16;;;;;;;6.20;2.60;;;;;;;12.66;73.76;99644.11;224930;1276;138400;-74
2023/05/18 08:06:40;;;;;;;7.60;3.30;;;;;;;12.67;73.87;99642.01;225074;1260;138464;-75
2023/05/18 08:12:02;;;;;;;8.20;3.60;;;;;;;12.86;73.65;99644.23;225078;1260;22600;-75
2023/05/18 08:17:22;;;;;;;9.50;3.30;;;;;;;12.94;72.78;99646.54;224844;1284;137932;-76
2023/05/18 08:22:30;;;;;;;6.30;2.80;;;;;;;13.10;72.56;99652.49;224658;1284;138236;-76
2023/05/18 08:27:33;;;;;;;8.10;2.90;;;;;;;13.20;72.04;99655.06;225011;1283;138579;-77
2023/05/18 08:32:38;;;;;;;4.50;3.10;;;;;;;13.33;71.71;99656.46;225082;1263;138088;-79
2023/05/18 08:37:41;;;;;;;8.50;3.50;;;;;;;13.56;71.82;99657.62;225109;1276;138625;-77
2023/05/18 08:43:08;;;;;;;7.70;2.90;;;;;;;13.79;70.49;99650.30;225114;1282;138476;-78
2023/05/18 08:48:18;;;;;;;6.60;3.00;;;;;;;13.88;69.96;99647.32;225418;1278;22558;-78
2023/05/18 08:53:31;;;;;;;12.40;3.80;;;;;;;14.13;70.11;99646.70;225416;1275;22563;-78
2023/05/18 08:58:47;;;;;;;9.10;2.60;;;;;;;14.40;69.78;99652.81;225251;1268;138405;-75
2023/05/18 09:03:57;;;;;;;7.60;2.40;;;;;;;14.61;68.94;99650.22;225085;1275;138327;-75
2023/05/18 09:09:05;;;;;;;4.70;2.20;;;;;;;14.67;67.72;99649.29;224982;1274;138529;-75
2023/05/18 09:14:08;;;;;;;8.80;2.20;;;;;;;14.67;66.70;99647.52;225200;1277;138475;-76
2023/05/18 09:19:11;;;;;;;10.50;2.20;;;;;;;14.61;66.20;99645.64;225099;1280;138441;-75
2023/05/18 09:24:22;;;;;;;5.70;2.10;;;;;;;14.44;65.75;99649.91;225137;1280;22567;-75
2023/05/18 09:29:50;;;;;;;3.60;1.70;;;;;;;14.40;65.84;99657.40;225038;1281;24282;-76
2023/05/18 09:35:04;;;;;;;5.00;1.60;;;;;;;14.45;65.87;99657.70;224786;1262;138176;-74
2023/05/18 09:40:18;;;;;;;2.80;1.70;;;;;;;14.47;65.70;99657.10;225103;1277;138521;-77
2023/05/18 09:45:41;;;;;;;6.00;1.90;;;;;;;14.43;65.85;99659.18;225039;1280;138475;-77
2023/05/18 09:51:05;;;;;;;5.90;1.80;;;;;;;14.52;65.55;99661.81;224954;1277;138463;-78
2023/05/18 09:56:11;;;;;;;3.40;1.50;;;;;;;14.48;64.49;99658.86;224892;1275;138461;-77
2023/05/18 10:01:16;;;;;;;5.10;2.00;;;;;;;14.37;64.43;99660.80;225020;1265;139025;-76
2023/05/18 10:06:26;;;;;;;4.10;2.00;;;;;;;14.31;64.53;99658.93;225176;1276;23101;-77
2023/05/18 10:11:32;;;;;;;6.20;2.40;;;;;;;14.27;65.40;99657.85;225052;1260;23083;-77
2023/05/18 10:16:43;;;;;;;5.80;2.20;;;;;;;14.28;65.22;99660.37;224978;1279;138122;-78
2023/05/18 10:21:50;;;;;;;5.50;1.70;;;;;;;14.22;65.09;99658.02;224742;1281;139146;-78
2023/05/18 10:27:00;;;;;;;4.60;1.80;;;;;;;14.12;64.91;99660.09;224735;1281;138539;-78
2023/05/18 10:32:19;;;;;;;5.50;2.00;;;;;;;14.07;65.34;99660.16;224988;1276;138686;-80
2023/05/18 10:37:38;;;;;;;6.20;2.10;;;;;;;14.07;64.84;99659.67;222527;1275;2989676;-79
2023/05/18 10:42:43;;;;;;;;;;;;;;;14.05;65.20;99658.34;224714;1283;138622;-81
2023/05/18 10:47:53;;;;;;;6.70;2.20;;;;;;;14.01;64.90;99652.70;225022;1283;23355;-81
2023/05/18 10:53:01;;;;;;;6.90;2.00;;;;;;;13.97;64.54;99651.10;224956;1260;138242;-80
2023/05/18 10:58:13;;;;;;;6.30;2.10;;;;;;;13.90;64.38;99649.06;224949;1281;138455;-77
2023/05/18 11:03:17;;;;;;;5.60;2.20;;;;;;;13.80;64.54;99649.52;225047;1270;138443;-76
2023/05/18 11:08:45;;;;;;;8.20;1.90;;;;;;;13.75;64.78;99652.83;225091;1275;138590;-81
2023/05/18 11:14:23;;;;;;;4.50;1.90;;;;;;;13.77;65.25;99649.88;225242;1280;139464;-81
2023/05/18 11:19:33;;;;;;;5.60;2.00;;;;;;;13.75;65.01;99653.81;224974;1282;138521;-78
2023/05/18 11:24:41;;;;;;;5.00;1.70;;;;;;;13.77;65.07;99650.52;224931;1277;139227;-77
2023/05/18 11:29:51;;;;;;;5.00;2.00;;;;;;;13.86;65.18;99654.78;224861;1278;22550;-79
2023/05/18 11:35:21;;;;;;;;;;;;;;;13.94;64.88;99656.54;225118;1281;138187;-78
2023/05/18 11:41:32;;;;;;;7.40;1.90;;;;;;;14.01;64.94;99658.06;225063;1279;124945;-78
2023/05/18 11:47:12;;;;;;;5.70;2.00;;;;;;;13.95;64.21;99662.25;225073;1283;138828;-79
2023/05/18 11:52:58;;;;;;;4.50;1.50;;;;;;;13.84;65.35;99668.20;225096;1283;138254;-75
2023/05/18 11:58:28;;;;;;;;;;;;;;;;;;;;;
2023/05/18 12:04:15;;;;;;;7.10;1.90;;;;;;;13.69;65.22;99673.87;225102;1283;138476;-80
2023/05/18 12:09:41;;;;;;;4.40;1.90;;;;;;;13.68;65.27;99675.58;225041;1283;138854;-80
2023/05/18 12:15:19;;;;;;;3.60;2.10;;;;;;;13.73;65.67;99678.17;224763;1284;139032;-80
2023/05/18 12:20:45;;;;;;;3.30;1.80;;;;;;;13.75;65.75;99677.43;224786;1286;138651;-80
2023/05/18 12:26:13;;;;;;;5.10;2.60;;;;;;;13.73;65.43;99681.86;224711;1286;138711;-81
2023/05/18 12:31:30;;;;;;;5.20;2.40;;;;;;;13.62;65.61;99685.03;225041;1282;138616;-80
2023/05/18 12:37:07;;;;;;;7.20;2.90;;;;;;;13.61;66.14;99680.98;225156;1282;138620;-80
2023/05/18 12:42:33;;;;;;;4.20;2.40;;;;;;;13.66;66.31;99680.98;225210;1280;22553;-80
2023/05/18 12:47:52;;;;;;;4.50;2.40;;;;;;;13.62;66.35;99680.05;225284;1281;22590;-82
2023/05/18 12:54:10;;;;;;;5.70;2.90;;;;;;;13.71;66.19;99675.57;225192;1283;138175;-80
2023/05/18 12:59:49;;;;;;;4.50;2.30;;;;;;;13.84;66.39;99672.98;225001;1281;138769;-80
2023/05/18 13:05:16;;;;;;;7.00;2.60;;;;;;;13.95;66.27;99669.60;225177;1277;138915;-80
2023/05/18 13:10:35;;;;;;;6.80;2.10;;;;;;;13.96;65.94;99668.63;225252;1282;138437;-81
2023/05/18 13:15:58;;;;;;;5.30;2.40;;;;;;;13.98;66.27;99671.39;225273;1282;138535;-80
2023/05/18 13:21:01;;;;;;;7.70;3.30;;;;;;;13.99;66.98;99672.98;225289;1264;138506;-80
2023/05/18 13:26:17;;;;;;;6.40;2.60;;;;;;;13.98;67.00;99670.52;225095;1281;138552;-80
2023/05/18 13:31:38;;;;;;;4.10;2.70;;;;;;;13.98;67.12;99670.61;225142;1275;138469;-78
2023/05/18 13:36:58;;;;;;;5.50;2.40;;;;;;;13.97;67.19;99667.04;225142;1281;138419;-82
2023/05/18 13:42:20;;;;;;;6.10;2.50;;;;;;;14.03;67.12;99666.34;225230;1278;22558;-81
2023/05/18 13:47:30;;;;;;;4.20;2.00;;;;;;;14.10;66.75;99663.30;225016;1276;138520;-80
2023/05/18 13:52:46;;;;;;;4.80;2.10;;;;;;;14.18;66.59;99662.36;225209;1275;139093;-79
2023/05/18 13:58:00;;;;;;;4.90;2.30;;;;;;;14.20;66.01;99658.45;225124;1275;138406;-79
2023/05/18 14:03:17;;;;;;;5.80;2.30;;;;;;;14.13;65.99;99659.40;225240;1275;22583;-79
2023/05/18 14:08:53;;;;;;;4.00;2.30;;;;;;;14.08;65.32;99665.13;225011;1283;22562;-79
2023/05/18 14:14:04;;;;;;;3.40;2.50;;;;;;;14.05;65.76;99662.16;225303;1281;25279;-79
2023/05/18 14:19:15;;;;;;;4.90;1.90;;;;;;;14.06;65.87;99662.25;225356;1283;23024;-79
2023/05/18 14:24:24;;;;;;;3.80;2.50;;;;;;;14.00;66.18;99655.18;225655;1278;22615;-79
2023/05/18 14:29:32;;;;;;;6.60;2.20;;;;;;;14.09;66.38;99657.45;225626;1278;22571;-79
2023/05/18 14:34:53;;;;;;;5.60;2.90;;;;;;;14.11;66.09;99655.41;225685;1282;22562;-80
2023/05/18 14:40:05;;;;;;;4.80;2.00;;;;;;;13.99;66.16;99649.97;225614;1275;22678;-80
2023/05/18 14:45:15;;;;;;;4.50;2.40;;;;;;;13.91;65.99;99651.17;225635;1278;22562;-79
2023/05/18 14:50:54;;;;;;;4.60;2.50;;;;;;;13.83;66.35;99654.30;225629;1282;23079;-79
2023/05/18 14:56:07;;;;;;;3.60;2.10;;;;;;;13.65;66.15;99660.77;225697;1282;22551;-79
2023/05/18 15:01:17;;;;;;;3.10;2.00;;;;;;;13.45;66.12;99662.45;225601;1282;22542;-79
2023/05/18 15:06:27;;;;;;;4.10;2.00;;;;;;;13.31;66.50;99662.36;225629;1275;22541;-79
2023/05/18 15:11:33;;;;;;;4.30;2.60;;;;;;;13.20;67.09;99665.81;225684;1282;22549;-79
2023/05/18 15:16:51;;;;;;;5.60;3.00;;;;;;;13.09;67.28;99669.39;225620;1282;22672;-79
2023/05/18 15:22:08;;;;;;;4.20;2.30;;;;;;;12.82;67.51;99674.06;225668;1282;22602;-79
2023/05/18 15:27:28;;;;;;;4.30;2.50;;;;;;;12.64;67.61;99675.08;225671;1282;22633;-79
2023/05/18 15:32:39;;;;;;;3.60;2.00;;;;;;;12.50;67.68;99683.45;225718;1282;22539;-78
2023/05/18 15:38:01;;;;;;;3.80;2.30;;;;;;;12.29;67.50;99683.08;225580;1280;22557;-79
2023/05/18 15:43:21;;;;;;;4.30;2.00;;;;;;;12.05;67.84;99688.65;225672;1278;22575;-79
2023/05/18 15:48:38;;;;;;;3.40;2.10;;;;;;;11.91;68.13;99686.94;225652;1275;22638;-78
2023/05/18 15:54:09;;;;;;;;;;;;;;;;;;;;;
2023/05/18 15:59:27;;;;;;;4.40;3.20;;;;;;;11.68;68.14;99696.27;225555;1283;22540;-79
2023/05/18 16:04:52;;;;;;;3.40;2.30;;;;;;;11.61;68.73;99691.84;225469;1283;22539;-79
2023/05/18 16:10:01;;;;;;;4.30;2.10;;;;;;;11.60;69.29;99690.52;225607;1271;22556;-79
2023/05/18 16:15:04;;;;;;;4.40;2.40;;;;;;;11.63;69.19;99695.71;225543;1279;24255;-79
2023/05/18 16:20:23;;;;;;;4.10;2.50;;;;;;;11.61;69.45;99698.63;225564;1280;22547;-80
2023/05/18 16:25:31;;;;;;;3.50;2.50;;;;;;;11.53;69.71;99702.27;225394;1283;22539;-80
2023/05/18 16:30:42;;;;;;;4.70;2.50;;;;;;;11.43;70.33;99702.04;225552;1283;22549;-80
2023/05/18 16:35:52;;;;;;;;;;;;;;;11.35;70.76;99704.32;225606;1283;22524;-79
2023/05/18 16:41:37;;;;;;;;;;;;;;;11.22;71.04;99707.53;225644;1275;22531;-80
2023/05/18 16:47:10;;;;;;;5.00;3.20;;;;;;;11.11;71.53;99711.72;225666;1278;22550;-79
2023/05/18 16:52:29;;;;;;;4.80;3.20;;;;;;;11.00;72.20;99717.53;225635;1282;25995;-79
2023/05/18 16:57:50;;;;;;;5.40;4.10;;;;;;;10.86;72.20;99719.39;225700;1282;25241;-79
2023/05/18 17:03:08;;;;;;;7.10;4.50;;;;;;;10.68;72.12;99719.64;225688;1282;22599;-79
2023/05/18 17:08:38;;;;;;;5.90;3.60;;;;;;;10.48;72.59;99717.39;225652;1282;22536;-79
2023/05/18 17:14:03;;;;;;;5.40;3.50;;;;;;;10.37;72.85;99715.33;225662;1282;22646;-77
2023/05/18 17:19:14;;;;;;;5.00;3.70;;;;;;;10.25;73.37;99712.64;225628;1282;22672;-79
2023/05/18 17:24:19;;;;;;;6.30;4.30;;;;;;;10.18;73.64;99715.19;225643;1275;22652;-79
2023/05/18 17:29:37;;;;;;;5.50;4.20;;;;;;;10.12;74.13;99717.35;225623;1280;22965;-79
2023/05/18 17:35:06;;;;;;;6.90;4.00;;;;;;;10.04;74.53;99713.45;225647;1282;23083;-79
2023/05/18 17:40:17;;;;;;;8.40;4.20;;;;;;;10.00;74.68;99710.37;225656;1275;22542;-78
2023/05/18 17:45:39;;;;;;;6.70;4.80;;;;;;;9.97;74.95;99710.91;225628;1282;22593;-79
2023/05/18 17:50:49;;;;;;;5.90;4.50;;;;;;;9.95;75.50;99711.77;225663;1278;22539;-79
2023/05/18 17:56:18;;;;;;;10.10;6.20;;;;;;;9.94;75.77;99709.08;225626;1282;22524;-78
2023/05/18 18:01:33;;;;;;;6.70;5.10;;;;;;;9.90;75.80;99711.61;225640;1278;23292;-79
2023/05/18 18:06:42;;;;;;;7.70;4.90;;;;;;;9.83;75.91;99716.75;225470;1282;22555;-79
2023/05/18 18:11:44;;;;;;;8.00;4.60;;;;;;;9.78;75.97;99719.88;225521;1279;22539;-80
2023/05/18 18:16:47;;;;;;;7.30;4.60;;;;;;;9.71;76.37;99722.06;225505;1278;22539;-79
2023/05/18 18:21:50;;;;;;;8.20;4.90;;;;;;;9.65;76.57;99715.50;225466;1281;22554;-79
2023/05/18 18:27:03;;;;;;;8.00;4.90;;;;;;;9.57;76.73;99718.38;225506;1283;22543;-80
2023/05/18 18:32:20;;;;;;;9.50;5.40;;;;;;;9.53;76.82;99718.65;225605;1283;22538;-78
2023/05/18 18:37:28;;;;;;;9.70;5.60;;;;;;;9.50;76.92;99719.00;225511;1278;22543;-79
2023/05/18 18:42:46;;;;;;;11.60;5.90;;;;;;;9.45;77.23;99723.70;225617;1279;22593;-77
2023/05/18 18:48:00;;;;;;;10.00;6.60;;;;;;;9.41;77.25;99731.69;225557;1281;23434;-79
2023/05/18 18:53:17;;;;;;;7.90;6.20;;;;;;;9.36;77.64;99730.56;225572;1283;25448;-78
2023/05/18 18:58:48;;;;;;;8.50;6.90;;;;;;;9.33;78.06;99732.20;225588;1283;22688;-78
2023/05/18 19:04:01;;;;;;;7.60;6.70;;;;;;;9.30;77.82;99736.21;225582;1283;22530;-79
2023/05/18 19:09:15;;;;;;;10.50;7.20;;;;;;;9.26;77.97;99735.36;225511;1283;24193;-79
2023/05/18 19:14:26;;;;;;;8.80;6.10;;;;;;;9.23;78.03;99742.72;225619;1281;22565;-79
2023/05/18 19:19:37;;;;;;;10.60;6.90;;;;;;;9.20;78.39;99741.71;225609;1281;22547;-79
2023/05/18 19:24:39;;;;;;;10.90;6.80;;;;;;;9.19;78.20;99744.10;225595;1279;22640;-79
2023/05/18 19:29:54;;;;;;;8.30;5.70;;;;;;;9.18;78.20;99747.02;225495;1276;22587;-79
2023/05/18 19:35:00;;;;;;;10.40;7.10;;;;;;;9.15;78.51;99744.14;225380;1283;22545;-79
2023/05/18 19:40:20;;;;;;;12.10;7.10;;;;;;;9.13;78.47;99739.44;225502;1283;22621;-79
2023/05/18 19:45:32;;;;;;;9.30;6.70;;;;;;;9.11;78.67;99744.92;225487;1273;22541;-79
2023/05/18 19:50:46;;;;;;;9.00;6.60;;;;;;;9.07;78.33;99740.57;225480;1282;22550;-79
2023/05/18 19:56:19;;;;;;;9.20;6.30;;;;;;;9.05;78.65;99742.39;225720;1282;22552;-78
2023/05/18 20:01:49;;;;;;;11.90;6.80;;;;;;;9.04;78.63;99750.27;225685;1282;24244;-79
2023/05/18 20:07:05;;;;;;;;;;;;;;;9.04;78.55;99751.71;225659;1269;22528;-79
2023/05/18 20:12:30;;;;;;;11.10;7.80;;;;;;;9.01;78.54;99756.80;225717;1282;22543;-79
2023/05/18 20:17:41;;;;;;;9.00;7.30;;;;;;;9.01;78.76;99757.22;225677;1282;22546;-79
2023/05/18 20:23:09;;;;;;;10.70;7.40;;;;;;;9.01;78.80;99762.13;225528;1282;24424;-79
2023/05/18 20:28:26;;;;;;;11.10;7.10;;;;;;;9.00;78.57;99760.14;225580;1276;22555;-78
2023/05/18 20:33:45;;;;;;;11.80;9.90;;;;;;;9.00;78.64;99759.05;225531;1282;22543;-78
2023/05/18 20:38:48;;;;;;;14.40;11.90;;;;;;;9.02;78.91;99758.35;225677;1278;22544;-79
2023/05/18 20:43:51;;;;;;;18.10;14.40;;;;;;;9.04;78.81;99759.36;225634;1281;22534;-79
2023/05/18 20:49:04;;;;;;;20.10;16.50;;;;;;;9.06;78.89;99756.21;225674;1282;22548;-79
2023/05/18 20:54:21;;;;;;;18.70;15.30;;;;;;;9.06;78.69;99755.65;225474;1281;22575;-79
2023/05/18 20:59:45;;;;;;;16.10;13.40;;;;;;;9.05;78.48;99754.51;225610;1282;22596;-79
2023/05/18 21:05:05;;;;;;;16.00;10.40;;;;;;;9.06;78.79;99753.38;225651;1282;22538;-78
2023/05/18 21:10:34;;;;;;;12.40;7.60;;;;;;;9.08;79.16;99758.10;225680;1282;22565;-78
2023/05/18 21:15:59;;;;;;;10.90;8.10;;;;;;;9.07;79.11;99760.08;225506;1282;24229;-78
2023/05/18 21:21:22;;;;;;;12.80;8.50;;;;;;;9.10;79.17;99762.77;225544;1276;25285;-79
2023/05/18 21:26:52;;;;;;;;;;;;;;;;;;;;;
2023/05/18 21:32:14;;;;;;;11.50;8.50;;;;;;;9.13;79.48;99752.98;225638;1278;22591;-78
2023/05/18 21:37:42;;;;;;;12.40;9.20;;;;;;;9.16;79.43;99757.27;225689;1282;22546;-78
2023/05/18 21:43:00;;;;;;;14.50;9.60;;;;;;;9.16;79.19;99757.62;225510;1281;22534;-79
2023/05/18 21:48:38;;;;;;;11.30;8.70;;;;;;;9.15;79.56;99756.85;225467;1267;22562;-78
2023/05/18 21:54:18;;;;;;;11.30;8.30;;;;;;;9.16;79.33;99754.42;225472;1283;23334;-78
2023/05/18 21:59:47;;;;;;;13.40;9.50;;;;;;;9.19;79.60;99756.29;225479;1283;22594;-78
2023/05/18 22:05:18;;;;;;;16.40;10.60;;;;;;;9.19;79.76;99758.50;225522;1283;22551;-78
2023/05/18 22:10:34;;;;;;;19.20;13.20;;;;;;;9.19;79.91;99761.73;225467;1281;22554;-79
2023/05/18 22:15:54;;;;;;;18.10;12.80;;;;;;;9.18;79.66;99756.69;225433;1281;22544;-78
2023/05/18 22:21:03;;;;;;;16.70;13.00;;;;;;;9.16;80.03;99750.23;225384;1283;22546;-78
2023/05/18 22:26:47;;;;;;;16.00;12.70;;;;;;;9.15;80.11;99754.55;225432;1283;22543;-79
2023/05/18 22:32:19;;;;;;;18.90;12.40;;;;;;;9.13;79.99;99753.88;225547;1283;22543;-79
2023/05/18 22:37:53;;;;;;;16.90;12.50;;;;;;;9.10;79.88;99749.73;222928;1283;3308985;-78
2023/05/18 22:43:25;;;;;;;18.20;12.90;;;;;;;9.06;79.87;99748.81;225519;1281;22559;-78
2023/05/18 22:49:21;;;;;;;15.70;12.00;;;;;;;9.03;80.35;99742.96;225675;1282;22578;-78
2023/05/18 22:55:06;;;;;;;14.60;10.30;;;;;;;9.01;80.49;99739.95;225594;1282;23270;-78
2023/05/18 23:00:41;;;;;;;12.80;9.70;;;;;;;8.99;79.77;99745.17;225656;1282;22554;-78
2023/05/18 23:06:48;;;;;;;10.30;8.20;;;;;;;8.95;79.90;99737.92;225631;1282;22578;-79
2023/05/18 23:12:47;;;;;;;12.90;8.80;;;;;;;8.94;80.06;99742.63;225627;1282;23224;-78
2023/05/18 23:18:44;;;;;;;11.10;8.60;;;;;;;8.92;79.72;99744.98;225608;1282;22535;-78
2023/05/18 23:24:14;;;;;;;15.40;9.30;;;;;;;8.90;79.64;99746.92;225611;1282;22553;-77
2023/05/18 23:29:34;;;;;;;16.00;11.40;;;;;;;8.89;80.27;99746.49;225600;1282;25287;-77
2023/05/18 23:34:56;;;;;;;17.40;12.40;;;;;;;8.89;80.11;99743.52;225615;1282;22551;-77
2023/05/18 23:40:20;;;;;;;17.20;11.30;;;;;;;8.88;79.77;99741.90;225539;1282;22564;-80
2023/05/18 23:46:10;;;;;;;19.20;13.30;;;;;;;8.84;80.03;99741.52;225615;1282;22500;-79
2023/05/18 23:52:05;;;;;;;19.30;12.00;;;;;;;8.82;79.90;99740.44;225684;1282;22561;-78
2023/05/18 23:57:31;;;;;;;18.00;12.80;;;;;;;8.79;80.00;99738.80;225581;1282;22555;-77
